Time;durP1;ratioP1;P1;durP2;ratioP2;P2;SDS_P1;SDS_P2;PMS_P1;PMS_P2;Temp;Humidity;BMP_temperature;BMP_pressure;BME280_temperature;BME280_humidity;BME280_pressure;Samples;Min_cycle;Max_cycle;Signal;HPM_P1;HPM_P2
2023/07/26 00:01:31;;;;;;;;;;;;;;;;;;;;;
2023/07/26 00:03:58;;;;;;;3.13;2.20;;;;;;;;;;5054299;28;20048;-80
2023/07/26 00:10:27;;;;;;;4.53;2.35;;;;;;;;;;4952035;28;20070;-81
2023/07/26 00:12:53;;;;;;;3.50;2.30;;;;;;;;;;4953658;28;20039;-80
2023/07/26 00:15:26;;;;;;;5.10;2.67;;;;;;;;;;5051315;28;20605;-80
2023/07/26 00:18:05;;;;;;;4.30;2.83;;;;;;;;;;5056574;28;20116;-80
2023/07/26 00:20:31;;;;;;;5.35;2.80;;;;;;;;;;5052779;28;20048;-81
2023/07/26 00:22:57;;;;;;;6.20;2.90;;;;;;;;;;5063393;28;20041;-80
2023/07/26 00:25:25;;;;;;;6.47;2.70;;;;;;;;;;5056725;28;20032;-80
2023/07/26 00:27:50;;;;;;;8.07;3.35;;;;;;;;;;5064660;28;20097;-80
2023/07/26 00:30:19;;;;;;;7.03;3.38;;;;;;;;;;5065447;28;20044;-81
2023/07/26 00:32:45;;;;;;;6.00;3.10;;;;;;;;;;5057060;28;20025;-80
2023/07/26 00:35:31;;;;;;;;;;;;;;;;;;;;;
2023/07/26 00:37:57;;;;;;;7.13;3.72;;;;;;;;;;5059579;28;20510;-80
2023/07/26 00:40:23;;;;;;;7.10;3.53;;;;;;;;;;5061904;28;20052;-80
2023/07/26 00:42:49;;;;;;;8.95;3.33;;;;;;;;;;5059563;28;20072;-81
2023/07/26 00:45:15;;;;;;;4.47;3.22;;;;;;;;;;5057478;28;20035;-80
2023/07/26 00:47:50;;;;;;;7.97;3.78;;;;;;;;;;5058710;28;20031;-80
2023/07/26 00:53:28;;;;;;;6.82;4.03;;;;;;;;;;5011491;28;20087;-80
2023/07/26 00:55:54;;;;;;;6.38;4.05;;;;;;;;;;5040142;28;20090;-80
2023/07/26 00:58:23;;;;;;;7.43;4.20;;;;;;;;;;5041956;28;20039;-80
2023/07/26 01:00:50;;;;;;;7.45;4.10;;;;;;;;;;5057436;28;20040;-80
2023/07/26 01:03:32;;;;;;;8.90;4.05;;;;;;;;;;5054980;28;20036;-80
2023/07/26 01:06:36;;;;;;;12.90;4.35;;;;;;;;;;5058718;28;20103;-80
2023/07/26 01:09:42;;;;;;;8.32;4.25;;;;;;;;;;5054573;28;20546;-80
2023/07/26 01:12:50;;;;;;;7.93;3.97;;;;;;;;;;5059787;28;20028;-80
2023/07/26 01:22:09;;;;;;;10.73;4.30;;;;;;;;;;4968094;28;20048;-81
2023/07/26 01:25:09;;;;;;;8.25;4.30;;;;;;;;;;5029969;28;20063;-80
2023/07/26 01:28:32;;;;;;;7.68;4.30;;;;;;;;;;5059726;28;20095;-80
2023/07/26 01:31:04;;;;;;;7.30;3.78;;;;;;;;;;5034541;28;20036;-80
2023/07/26 01:33:41;;;;;;;7.32;3.95;;;;;;;;;;5062247;28;20032;-80
2023/07/26 01:36:13;;;;;;;8.80;3.67;;;;;;;;;;5046876;28;20032;-80
2023/07/26 01:39:09;;;;;;;8.90;4.40;;;;;;;;;;5046322;28;20028;-82
2023/07/26 01:41:40;;;;;;;9.02;4.47;;;;;;;;;;5048138;28;20044;-81
2023/07/26 01:44:38;;;;;;;6.78;4.15;;;;;;;;;;5054484;28;20650;-81
2023/07/26 01:47:05;;;;;;;5.68;3.92;;;;;;;;;;5034105;28;20047;-81
2023/07/26 01:49:34;;;;;;;7.22;4.28;;;;;;;;;;5056357;28;20033;-81
2023/07/26 01:52:03;;;;;;;7.93;4.28;;;;;;;;;;5057166;28;20591;-80
2023/07/26 01:54:32;;;;;;;8.32;4.22;;;;;;;;;;5057798;28;20479;-80
2023/07/26 01:57:07;;;;;;;10.10;4.57;;;;;;;;;;5059529;28;20511;-80
2023/07/26 01:59:33;;;;;;;9.65;4.15;;;;;;;;;;5061708;28;20029;-81
2023/07/26 02:02:13;;;;;;;7.50;4.30;;;;;;;;;;5057797;28;20036;-80
2023/07/26 02:04:42;;;;;;;9.80;4.05;;;;;;;;;;5062225;28;20044;-80
2023/07/26 02:07:08;;;;;;;8.55;4.22;;;;;;;;;;5051000;28;20040;-80
2023/07/26 02:10:04;;;;;;;8.80;4.18;;;;;;;;;;5060622;28;20461;-80
2023/07/26 02:12:30;;;;;;;7.35;4.03;;;;;;;;;;5052317;28;20541;-80
2023/07/26 02:14:56;;;;;;;8.98;4.95;;;;;;;;;;5057870;28;20032;-80
2023/07/26 02:23:36;;;;;;;7.22;3.97;;;;;;;;;;5050916;28;20085;-80
2023/07/26 02:26:12;;;;;;;;;;;;;;;;;;;;;
2023/07/26 02:28:48;;;;;;;7.10;4.68;;;;;;;;;;5039586;28;20036;-81
2023/07/26 02:31:26;;;;;;;;;;;;;;;;;;;;;
2023/07/26 02:33:52;;;;;;;11.05;4.38;;;;;;;;;;5058899;28;20040;-81
2023/07/26 02:36:29;;;;;;;8.52;4.20;;;;;;;;;;5044376;28;20055;-80
2023/07/26 02:39:04;;;;;;;8.40;4.30;;;;;;;;;;5054370;28;20020;-80
2023/07/26 02:41:35;;;;;;;7.95;4.15;;;;;;;;;;5054716;28;20037;-80
2023/07/26 02:44:25;;;;;;;7.28;4.20;;;;;;;;;;5032671;28;20037;-80
2023/07/26 02:46:51;;;;;;;6.65;4.20;;;;;;;;;;5037906;28;20093;-80
2023/07/26 02:49:20;;;;;;;9.63;4.57;;;;;;;;;;5063003;28;20024;-80
2023/07/26 02:51:45;;;;;;;8.52;3.90;;;;;;;;;;5059907;28;20097;-80
2023/07/26 02:54:20;;;;;;;8.38;4.03;;;;;;;;;;5062168;28;20135;-80
2023/07/26 02:56:46;;;;;;;7.30;4.07;;;;;;;;;;5051815;28;20121;-80
2023/07/26 02:59:14;;;;;;;9.07;4.10;;;;;;;;;;5063525;28;20064;-80
2023/07/26 03:01:52;;;;;;;;;;;;;;;;;;;;;
2023/07/26 03:04:39;;;;;;;12.63;5.57;;;;;;;;;;5060555;28;20044;-80
2023/07/26 03:07:04;;;;;;;7.55;3.70;;;;;;;;;;5057821;28;20051;-80
2023/07/26 03:09:30;;;;;;;11.07;4.20;;;;;;;;;;5040766;28;20044;-80
2023/07/26 03:12:17;;;;;;;;;;;;;;;;;;;;;
2023/07/26 03:14:43;;;;;;;9.80;4.25;;;;;;;;;;5025158;28;21175;-81
2023/07/26 03:17:14;;;;;;;7.18;4.07;;;;;;;;;;5060225;28;20516;-81
2023/07/26 03:19:46;;;;;;;8.23;3.83;;;;;;;;;;5058208;28;20036;-80
2023/07/26 03:22:11;;;;;;;9.60;3.97;;;;;;;;;;5042574;28;20127;-80
2023/07/26 03:24:37;;;;;;;7.70;4.25;;;;;;;;;;5059854;28;20116;-80
2023/07/26 03:27:08;;;;;;;7.93;3.88;;;;;;;;;;5059240;28;20393;-80
2023/07/26 03:29:33;;;;;;;10.85;3.78;;;;;;;;;;5062002;28;20074;-80
2023/07/26 03:32:22;;;;;;;13.13;4.20;;;;;;;;;;5057078;28;20045;-80
2023/07/26 03:35:21;;;;;;;8.15;4.07;;;;;;;;;;5056256;28;20050;-80
2023/07/26 03:38:09;;;;;;;8.00;4.18;;;;;;;;;;5059403;28;20036;-80
2023/07/26 03:40:39;;;;;;;5.97;3.47;;;;;;;;;;5043478;28;20510;-80
2023/07/26 03:43:10;;;;;;;8.23;3.67;;;;;;;;;;5064881;28;20040;-80
2023/07/26 03:45:51;;;;;;;7.65;4.28;;;;;;;;;;5064116;28;20051;-80
2023/07/26 03:55:26;;;;;;;6.97;3.55;;;;;;;;;;4958298;28;20153;-80
2023/07/26 04:01:01;;;;;;;9.05;3.78;;;;;;;;;;4940470;28;20067;-80
2023/07/26 04:03:26;;;;;;;11.45;4.07;;;;;;;;;;4987791;28;20036;-80
2023/07/26 04:10:00;;;;;;;8.15;3.72;;;;;;;;;;5013177;28;20532;-80
2023/07/26 04:19:20;;;;;;;6.53;3.88;;;;;;;;;;4957429;28;20630;-80
2023/07/26 04:21:46;;;;;;;8.98;4.00;;;;;;;;;;4949050;28;20134;-80
2023/07/26 04:24:12;;;;;;;11.88;4.18;;;;;;;;;;4964067;28;20106;-80
2023/07/26 04:27:14;;;;;;;8.50;4.00;;;;;;;;;;4984387;28;20065;-80
2023/07/26 04:29:42;;;;;;;8.23;4.43;;;;;;;;;;5041904;28;20041;-80
2023/07/26 04:32:15;;;;;;;9.80;3.90;;;;;;;;;;5033387;28;20442;-80
2023/07/26 04:34:44;;;;;;;;;;;;;;;;;;5044394;28;20032;-81
2023/07/26 04:37:13;;;;;;;7.50;3.72;;;;;;;;;;5041534;28;19913;-80
2023/07/26 04:39:39;;;;;;;9.60;4.10;;;;;;;;;;5024159;28;20035;-80
2023/07/26 04:42:05;;;;;;;7.97;4.13;;;;;;;;;;5012813;28;20105;-80
2023/07/26 04:44:36;;;;;;;8.90;3.85;;;;;;;;;;5019118;28;20025;-80
2023/07/26 04:47:04;;;;;;;9.75;4.18;;;;;;;;;;5012386;28;20034;-80
2023/07/26 04:49:34;;;;;;;8.57;3.85;;;;;;;;;;5015893;28;20034;-80
2023/07/26 04:52:00;;;;;;;8.75;3.97;;;;;;;;;;5021242;28;20045;-80
2023/07/26 04:54:28;;;;;;;9.13;4.13;;;;;;;;;;5021481;28;20041;-81
2023/07/26 04:56:54;;;;;;;10.73;4.28;;;;;;;;;;5040424;28;20067;-80
2023/07/26 04:59:28;;;;;;;7.70;4.13;;;;;;;;;;5035211;28;20065;-80
2023/07/26 05:02:41;;;;;;;;;;;;;;;;;;;;;
2023/07/26 05:05:15;;;;;;;10.55;4.47;;;;;;;;;;5039445;28;20110;-80
2023/07/26 05:07:40;;;;;;;8.85;3.47;;;;;;;;;;5043544;28;20399;-80
2023/07/26 05:10:25;;;;;;;6.57;3.97;;;;;;;;;;5044644;28;20052;-80
2023/07/26 05:12:57;;;;;;;6.35;3.65;;;;;;;;;;5045272;28;20084;-80
2023/07/26 05:19:09;;;;;;;5.88;3.40;;;;;;;;;;5040425;28;20143;-80
2023/07/26 05:21:37;;;;;;;9.35;4.38;;;;;;;;;;4992739;28;20041;-80
2023/07/26 05:24:03;;;;;;;8.40;3.75;;;;;;;;;;5023711;28;20032;-80
2023/07/26 05:26:57;;;;;;;8.20;3.50;;;;;;;;;;5042995;28;20021;-80
2023/07/26 05:29:53;;;;;;;8.23;4.00;;;;;;;;;;5053568;28;20144;-80
2023/07/26 05:32:15;;;;;;;7.78;3.83;;;;;;;;;;5054686;28;20066;-80
2023/07/26 05:34:41;;;;;;;7.30;4.03;;;;;;;;;;5062848;28;20044;-80
2023/07/26 05:37:10;;;;;;;13.57;4.18;;;;;;;;;;5063293;28;20121;-80
2023/07/26 05:39:38;;;;;;;16.98;4.50;;;;;;;;;;5059337;28;20044;-81
2023/07/26 05:42:44;;;;;;;6.82;3.92;;;;;;;;;;5046693;28;20039;-80
2023/07/26 05:45:10;;;;;;;9.65;4.13;;;;;;;;;;5047846;28;20049;-80
2023/07/26 05:47:38;;;;;;;9.25;4.13;;;;;;;;;;5059648;28;20062;-80
2023/07/26 05:50:10;;;;;;;10.70;4.03;;;;;;;;;;5051086;28;20470;-80
2023/07/26 05:52:55;;;;;;;9.85;4.10;;;;;;;;;;5047513;28;20036;-81
2023/07/26 05:55:27;;;;;;;10.30;4.38;;;;;;;;;;5029316;28;20037;-80
2023/07/26 05:57:52;;;;;;;8.77;4.50;;;;;;;;;;5021389;28;20029;-80
2023/07/26 06:00:19;;;;;;;7.13;3.80;;;;;;;;;;5033238;28;20041;-80
2023/07/26 06:02:50;;;;;;;8.52;4.00;;;;;;;;;;5024361;28;20044;-80
2023/07/26 06:05:16;;;;;;;8.32;4.18;;;;;;;;;;5023895;28;20120;-81
2023/07/26 06:07:42;;;;;;;12.23;4.05;;;;;;;;;;5034359;28;20036;-81
2023/07/26 06:10:11;;;;;;;9.10;3.55;;;;;;;;;;5030290;28;20035;-80
2023/07/26 06:15:46;;;;;;;6.10;4.10;;;;;;;;;;5025949;28;20096;-80
2023/07/26 06:18:50;;;;;;;7.10;3.78;;;;;;;;;;5023836;28;20053;-80
2023/07/26 06:21:17;;;;;;;9.10;4.13;;;;;;;;;;5020776;28;20033;-80
2023/07/26 06:23:43;;;;;;;7.38;4.22;;;;;;;;;;5024252;28;20048;-80
2023/07/26 06:27:04;;;;;;;10.32;4.63;;;;;;;;;;5030152;28;20072;-80
2023/07/26 06:29:34;;;;;;;12.50;4.88;;;;;;;;;;4986788;28;20037;-81
2023/07/26 06:32:00;;;;;;;11.63;4.38;;;;;;;;;;5030033;28;20029;-80
2023/07/26 06:34:58;;;;;;;;;;;;;;;;;;;;;
2023/07/26 06:40:33;;;;;;;8.00;4.22;;;;;;;;;;5009419;28;20053;-81
2023/07/26 06:49:31;;;;;;;7.45;4.22;;;;;;;;;;5023943;28;20123;-81
2023/07/26 07:01:52;;;;;;;10.00;5.00;;;;;;;;;;4961181;28;20111;-81
2023/07/26 07:04:18;;;;;;;6.53;4.10;;;;;;;;;;5020289;28;20040;-80
2023/07/26 07:07:39;;;;;;;9.85;4.57;;;;;;;;;;5023313;28;20093;-80
2023/07/26 07:13:26;;;;;;;9.25;4.32;;;;;;;;;;5013917;28;20052;-81
2023/07/26 07:15:56;;;;;;;7.60;4.53;;;;;;;;;;5019595;28;20050;-80
2023/07/26 07:18:32;;;;;;;;;;;;;;;;;;;;;
2023/07/26 07:21:03;;;;;;;9.27;4.75;;;;;;;;;;5041350;28;20029;-80
2023/07/26 07:26:53;;;;;;;9.00;4.28;;;;;;;;;;5034846;28;20037;-81
2023/07/26 07:29:19;;;;;;;9.05;4.35;;;;;;;;;;5045958;28;20028;-80
2023/07/26 07:31:45;;;;;;;8.80;4.60;;;;;;;;;;5027183;28;20756;-81
2023/07/26 07:34:13;;;;;;;11.65;4.28;;;;;;;;;;5039728;28;20036;-80
2023/07/26 07:36:41;;;;;;;9.75;4.32;;;;;;;;;;5039703;28;20055;-80
2023/07/26 07:39:12;;;;;;;9.30;4.47;;;;;;;;;;5046361;28;20037;-81
2023/07/26 07:41:40;;;;;;;10.23;4.25;;;;;;;;;;5029033;28;20033;-81
2023/07/26 07:44:23;;;;;;;6.60;3.85;;;;;;;;;;5043447;28;20044;-80
2023/07/26 07:47:07;;;;;;;11.82;3.88;;;;;;;;;;5029477;28;20041;-80
2023/07/26 07:49:48;;;;;;;8.75;4.00;;;;;;;;;;5037562;28;20026;-81
2023/07/26 07:52:26;;;;;;;12.80;4.40;;;;;;;;;;5039996;28;20156;-80
2023/07/26 07:54:54;;;;;;;8.38;3.80;;;;;;;;;;5044090;28;20049;-80
2023/07/26 07:57:21;;;;;;;9.07;3.90;;;;;;;;;;5040690;28;20483;-80
2023/07/26 07:59:47;;;;;;;9.20;4.78;;;;;;;;;;5045664;28;20056;-81
2023/07/26 08:02:15;;;;;;;7.75;4.00;;;;;;;;;;4992649;28;20423;-80
2023/07/26 08:05:03;;;;;;;12.25;4.32;;;;;;;;;;5037399;28;20454;-81
2023/07/26 08:07:29;;;;;;;5.93;3.97;;;;;;;;;;5037501;28;20486;-81
2023/07/26 08:09:55;;;;;;;6.32;3.80;;;;;;;;;;5023312;28;20523;-80
2023/07/26 08:16:37;;;;;;;10.88;4.65;;;;;;;;;;4965800;28;20053;-80
2023/07/26 08:22:06;;;;;;;5.05;3.03;;;;;;;;;;5034619;28;20043;-80
2023/07/26 08:24:56;;;;;;;8.40;3.25;;;;;;;;;;5029570;28;20045;-80
2023/07/26 08:28:09;;;;;;;6.30;3.50;;;;;;;;;;5025882;28;20045;-80
2023/07/26 08:30:40;;;;;;;4.60;2.92;;;;;;;;;;5011640;28;20052;-80
2023/07/26 08:35:53;;;;;;;5.10;3.35;;;;;;;;;;4981380;28;20128;-80
2023/07/26 08:38:52;;;;;;;9.88;3.63;;;;;;;;;;5031437;28;20047;-80
2023/07/26 08:42:05;;;;;;;;;;;;;;;;;;;;;
2023/07/26 08:44:32;;;;;;;4.97;3.20;;;;;;;;;;4978436;28;20053;-80
2023/07/26 08:47:00;;;;;;;6.50;3.55;;;;;;;;;;5026517;28;20071;-80
2023/07/26 08:49:30;;;;;;;5.75;3.30;;;;;;;;;;5020320;28;20150;-80
2023/07/26 08:52:26;;;;;;;8.48;3.70;;;;;;;;;;5023620;28;20534;-80
2023/07/26 08:54:52;;;;;;;8.13;4.18;;;;;;;;;;5020045;28;20108;-80
2023/07/26 08:57:45;;;;;;;6.15;4.00;;;;;;;;;;5038025;28;20052;-80
2023/07/26 09:00:15;;;;;;;6.30;3.45;;;;;;;;;;5044524;28;20052;-80
2023/07/26 09:03:17;;;;;;;13.05;5.05;;;;;;;;;;5030467;28;20029;-80
2023/07/26 09:05:45;;;;;;;5.97;3.63;;;;;;;;;;5035762;28;20044;-80
2023/07/26 09:08:18;;;;;;;9.90;3.47;;;;;;;;;;5039792;28;20037;-80
2023/07/26 09:10:46;;;;;;;6.95;3.83;;;;;;;;;;5037915;28;20064;-80
2023/07/26 09:13:56;;;;;;;;;;;;;;;;;;;;;
2023/07/26 09:16:53;;;;;;;7.55;3.83;;;;;;;;;;5032660;28;20395;-82
2023/07/26 09:19:30;;;;;;;6.18;3.60;;;;;;;;;;5039805;28;20136;-82
2023/07/26 09:22:00;;;;;;;5.85;4.13;;;;;;;;;;5026970;28;20063;-80
2023/07/26 09:24:37;;;;;;;4.93;3.42;;;;;;;;;;5005109;28;20042;-80
2023/07/26 09:31:19;;;;;;;;;;;;;;;;;;;;;
2023/07/26 09:37:21;;;;;;;6.90;3.00;;;;;;;;;;4904544;28;20882;-80
2023/07/26 09:39:47;;;;;;;5.60;3.60;;;;;;;;;;5043934;28;20067;-81
2023/07/26 09:45:52;;;;;;;7.45;3.72;;;;;;;;;;5004814;28;20085;-79
2023/07/26 09:48:32;;;;;;;7.13;3.80;;;;;;;;;;5037704;28;20117;-79
2023/07/26 09:52:05;;;;;;;;;;;;;;;;;;;;;
2023/07/26 11:18:05;;;;;;;;;;;;;;;;;;;;;
2023/07/26 11:21:25;;;;;;;;;;;;;;;;;;;;;
2023/07/26 12:05:44;;;;;;;4.15;2.63;;;;;;;;;;4954971;28;20573;-80
2023/07/26 12:22:24;;;;;;;6.07;2.97;;;;;;;;;;4835450;29;20063;-80
2023/07/26 12:25:16;;;;;;;7.65;4.88;;;;;;;;;;4871202;29;20425;-80
2023/07/26 14:34:44;;;;;;;;;;;;;;;;;;;;;
2023/07/26 15:01:34;;;;;;;;;;;;;;;;;;;;;
2023/07/26 15:15:15;;;;;;;3.47;2.10;;;;;;;;;;4871389;29;20068;-81
2023/07/26 15:38:51;;;;;;;;;;;;;;;;;;;;;
2023/07/26 15:45:22;;;;;;;2.92;2.17;;;;;;;;;;4869386;29;20076;-80
2023/07/26 17:04:11;;;;;;;;;;;;;;;;;;;;;
2023/07/26 17:12:54;;;;;;;;;;;;;;;;;;;;;
2023/07/26 17:16:15;;;;;;;;;;;;;;;;;;;;;
2023/07/26 17:43:06;;;;;;;4.43;2.60;;;;;;;;;;4871988;29;20051;-80
2023/07/26 17:49:26;;;;;;;;;;;;;;;;;;;;;
2023/07/26 17:52:22;;;;;;;4.72;2.70;;;;;;;;;;4862875;29;20043;-80
2023/07/26 17:54:47;;;;;;;6.20;2.90;;;;;;;;;;4868121;29;20057;-80
2023/07/26 17:57:33;;;;;;;;;;;;;;;;;;;;;
2023/07/26 19:10:10;;;;;;;;;;;;;;;;;;;;;
2023/07/26 19:33:35;;;;;;;;;;;;;;;;;;;;;
2023/07/26 19:43:42;;;;;;;;;;;;;;;;;;;;;
2023/07/26 19:46:20;;;;;;;4.75;2.70;;;;;;;;;;4951271;28;20436;-80
2023/07/26 20:02:33;;;;;;;6.97;3.20;;;;;;;;;;4923065;28;20637;-80
2023/07/26 20:18:46;;;;;;;;;;;;;;;;;;;;;
2023/07/26 20:29:00;;;;;;;;;;;;;;;;;;;;;
2023/07/26 20:32:16;;;;;;;7.43;3.15;;;;;;;;;;4862735;29;20040;-81
2023/07/26 20:34:55;;;;;;;;;;;;;;;;;;;;;
2023/07/26 20:41:22;;;;;;;8.05;3.10;;;;;;;;;;4861705;29;20211;-81
2023/07/26 21:29:01;;;;;;;7.53;3.33;;;;;;;;;;4869988;29;20554;-80
2023/07/26 21:46:20;;;;;;;7.88;4.10;;;;;;;;;;4813457;29;20047;-80
2023/07/26 21:55:49;;;;;;;7.97;3.78;;;;;;;;;;4789776;29;20051;-80
2023/07/26 22:02:20;;;;;;;7.78;3.45;;;;;;;;;;4809697;29;21060;-80
2023/07/26 22:05:36;;;;;;;6.90;3.45;;;;;;;;;;4822986;29;20038;-80
2023/07/26 22:15:23;;;;;;;5.70;3.38;;;;;;;;;;4827957;29;20105;-80
2023/07/26 22:17:54;;;;;;;6.57;3.63;;;;;;;;;;4830198;29;20778;-80
2023/07/26 22:20:36;;;;;;;5.80;3.13;;;;;;;;;;4823103;29;20034;-80
2023/07/26 22:23:21;;;;;;;;;;;;;;;;;;;;;
2023/07/26 22:26:45;;;;;;;7.00;3.63;;;;;;;;;;4989612;28;20046;-80
2023/07/26 22:33:53;;;;;;;5.57;3.45;;;;;;;;;;4884157;29;20079;-80
2023/07/26 22:36:47;;;;;;;8.15;3.42;;;;;;;;;;4898585;29;20209;-80
2023/07/26 22:39:19;;;;;;;5.90;3.58;;;;;;;;;;4950660;28;20070;-80
2023/07/26 22:42:18;;;;;;;7.40;3.55;;;;;;;;;;4963675;28;20034;-80
2023/07/26 22:45:23;;;;;;;;;;;;;;;;;;;;;
2023/07/26 23:08:25;;;;;;;7.22;3.85;;;;;;;;;;4982635;28;20115;-80
2023/07/26 23:14:17;;;;;;;9.68;4.15;;;;;;;;;;4946383;28;20167;-81
2023/07/26 23:17:20;;;;;;;9.25;4.05;;;;;;;;;;4942581;28;20402;-81
2023/07/26 23:19:48;;;;;;;9.05;4.13;;;;;;;;;;5011678;28;20050;-80
2023/07/26 23:25:17;;;;;;;7.13;3.88;;;;;;;;;;5021531;28;20051;-80
2023/07/26 23:34:30;;;;;;;6.38;3.80;;;;;;;;;;4963597;28;20074;-80
2023/07/26 23:36:56;;;;;;;7.97;4.18;;;;;;;;;;5007751;28;20522;-80
2023/07/26 23:39:31;;;;;;;6.72;4.28;;;;;;;;;;5021584;28;20668;-80
2023/07/26 23:42:46;;;;;;;7.90;3.80;;;;;;;;;;5014895;28;20096;-80
2023/07/26 23:51:58;;;;;;;6.93;3.65;;;;;;;;;;5038192;28;20040;-80
